Time,TemperatureF,DewpointF,PressureIn,WindDirection,WindDirectionDegrees,WindSpeedMPH,WindSpeedGustMPH,Humidity,HourlyPrecipIn,Conditions,Clouds,dailyrainin,SoftwareType,DateUTC
2013-09-09 00:01:00,50.5,42.5,30.00,SE,135,0.0,-999.0,74,-99.99,,,0.00,Acu-Link.com,2013-09-09 04:01:00,
2013-09-09 00:16:00,50.2,42.2,30.01,East,90,0.0,-999.0,74,-99.99,,,0.00,Acu-Link.com,2013-09-09 04:16:00,
2013-09-09 00:31:00,50.0,42.4,30.01,WSW,247,0.0,-999.0,75,-99.99,,,0.00,Acu-Link.com,2013-09-09 04:31:00,
2013-09-09 00:47:00,49.3,42.4,30.00,East,90,0.0,-999.0,77,-99.99,,,0.00,Acu-Link.com,2013-09-09 04:47:00,
2013-09-09 01:02:00,48.7,42.2,30.01,NE,45,0.0,-999.0,78,-99.99,,,0.00,Acu-Link.com,2013-09-09 05:02:00,
2013-09-09 01:17:00,48.6,42.4,30.02,North,0,0.0,-999.0,79,-99.99,,,0.00,Acu-Link.com,2013-09-09 05:17:00,
2013-09-09 01:32:00,48.4,42.8,30.01,ESE,112,0.0,-999.0,81,-99.99,,,0.00,Acu-Link.com,2013-09-09 05:32:00,
2013-09-09 01:47:00,48.4,42.5,30.02,SSW,202,0.0,-999.0,80,-99.99,,,0.00,Acu-Link.com,2013-09-09 05:47:00,
2013-09-09 02:03:00,48.2,42.0,30.02,ENE,67,0.0,-999.0,79,-99.99,,,0.00,Acu-Link.com,2013-09-09 06:03:00,
2013-09-09 02:18:00,47.7,41.8,30.02,ENE,67,0.0,-999.0,80,-99.99,,,0.00,Acu-Link.com,2013-09-09 06:18:00,
2013-09-09 02:33:00,47.3,41.4,30.02,North,0,0.0,-999.0,80,-99.99,,,0.00,Acu-Link.com,2013-09-09 06:33:00,
2013-09-09 02:48:00,46.9,41.4,30.03,South,180,0.0,-999.0,81,-99.99,,,0.00,Acu-Link.com,2013-09-09 06:48:00,
2013-09-09 03:03:00,46.9,41.7,30.03,East,90,0.0,-999.0,82,-99.99,,,0.00,Acu-Link.com,2013-09-09 07:03:00,
2013-09-09 03:19:00,46.8,41.9,30.04,NE,45,0.0,-999.0,83,-99.99,,,0.00,Acu-Link.com,2013-09-09 07:19:00,
2013-09-09 03:34:00,46.4,41.5,30.04,SE,135,0.0,-999.0,83,-99.99,,,0.00,Acu-Link.com,2013-09-09 07:34:00,
2013-09-09 03:49:00,46.4,41.5,30.04,ENE,67,0.0,-999.0,83,-99.99,,,0.00,Acu-Link.com,2013-09-09 07:49:00,
2013-09-09 04:05:00,46.4,41.5,30.04,ENE,67,0.0,-999.0,83,-99.99,,,0.00,Acu-Link.com,2013-09-09 08:05:00,
2013-09-09 04:20:00,46.4,41.5,30.05,ENE,67,0.0,-999.0,83,-99.99,,,0.00,Acu-Link.com,2013-09-09 08:20:00,
2013-09-09 04:35:00,46.8,41.9,30.05,East,90,0.0,-999.0,83,-99.99,,,0.00,Acu-Link.com,2013-09-09 08:35:00,
2013-09-09 04:50:00,46.9,41.7,30.05,SE,135,0.0,-999.0,82,-99.99,,,0.00,Acu-Link.com,2013-09-09 08:50:00,
2013-09-09 05:06:00,47.1,41.6,30.06,NE,45,0.0,-999.0,81,-99.99,,,0.00,Acu-Link.com,2013-09-09 09:06:00,
2013-09-09 05:21:00,46.6,42.6,30.08,North,0,0.0,-999.0,86,-99.99,,,0.00,Acu-Link.com,2013-09-09 09:21:00,
2013-09-09 05:36:00,45.5,41.0,30.09,NNE,22,0.0,-999.0,84,-99.99,,,0.00,Acu-Link.com,2013-09-09 09:36:00,
2013-09-09 05:51:00,44.4,40.8,30.10,East,90,0.0,-999.0,87,-99.99,,,0.00,Acu-Link.com,2013-09-09 09:51:00,
2013-09-09 06:06:00,44.1,40.5,30.11,ESE,112,0.0,-999.0,87,-99.99,,,0.00,Acu-Link.com,2013-09-09 10:06:00,
2013-09-09 06:22:00,43.7,40.1,30.12,ENE,67,0.0,-999.0,87,-99.99,,,0.00,Acu-Link.com,2013-09-09 10:22:00,
2013-09-09 06:37:00,43.5,40.2,30.11,East,90,0.0,-999.0,88,-99.99,,,0.00,Acu-Link.com,2013-09-09 10:37:00,
2013-09-09 06:52:00,44.1,41.4,30.12,SSW,202,0.0,-999.0,90,-99.99,,,0.00,Acu-Link.com,2013-09-09 10:52:00,
2013-09-09 07:07:00,43.7,40.7,30.12,South,180,0.0,-999.0,89,-99.99,,,0.00,Acu-Link.com,2013-09-09 11:07:00,
2013-09-09 07:23:00,44.2,41.2,30.13,SW,225,0.0,-999.0,89,-99.99,,,0.00,Acu-Link.com,2013-09-09 11:23:00,
2013-09-09 07:38:00,45.0,42.2,30.14,NE,45,0.0,-999.0,90,-99.99,,,0.00,Acu-Link.com,2013-09-09 11:38:00,
2013-09-09 07:53:00,45.9,42.3,30.13,South,180,0.0,-999.0,87,-99.99,,,0.00,Acu-Link.com,2013-09-09 11:53:00,
2013-09-09 08:08:00,48.4,42.2,30.13,WNW,292,0.0,-999.0,79,-99.99,,,0.00,Acu-Link.com,2013-09-09 12:08:00,
2013-09-09 08:23:00,50.2,42.2,30.14,SE,135,0.0,-999.0,74,-99.99,,,0.00,Acu-Link.com,2013-09-09 12:23:00,
2013-09-09 08:39:00,51.3,43.6,30.14,NE,45,0.0,-999.0,75,-99.99,,,0.00,Acu-Link.com,2013-09-09 12:39:00,
2013-09-09 08:54:00,52.2,43.8,30.14,SSW,202,0.0,-999.0,73,-99.99,,,0.00,Acu-Link.com,2013-09-09 12:54:00,
2013-09-09 09:09:00,53.6,44.8,30.15,SW,225,0.0,-999.0,72,-99.99,,,0.00,Acu-Link.com,2013-09-09 13:09:00,
2013-09-09 09:24:00,54.5,44.5,30.14,South,180,0.0,-999.0,69,-99.99,,,0.00,Acu-Link.com,2013-09-09 13:24:00,
2013-09-09 09:39:00,55.9,43.5,30.15,SW,225,0.0,-999.0,63,-99.99,,,0.00,Acu-Link.com,2013-09-09 13:39:00,
2013-09-09 09:55:00,57.2,44.3,30.14,WSW,247,0.0,-999.0,62,-99.99,,,0.00,Acu-Link.com,2013-09-09 13:55:00,
2013-09-09 10:10:00,57.9,41.4,30.15,NE,45,2.2,-999.0,54,-99.99,,,0.00,Acu-Link.com,2013-09-09 14:10:00,
2013-09-09 10:25:00,58.6,43.4,30.14,SW,225,0.0,-999.0,57,-99.99,,,0.00,Acu-Link.com,2013-09-09 14:25:00,
2013-09-09 10:40:00,59.0,41.9,30.13,South,180,1.7,-999.0,53,-99.99,,,0.00,Acu-Link.com,2013-09-09 14:40:00,
2013-09-09 10:55:00,59.5,41.9,30.14,ESE,112,3.7,-999.0,52,-99.99,,,0.00,Acu-Link.com,2013-09-09 14:55:00,
2013-09-09 11:11:00,60.4,42.2,30.13,NW,315,1.7,-999.0,51,-99.99,,,0.00,Acu-Link.com,2013-09-09 15:11:00,
2013-09-09 11:26:00,61.0,43.2,30.14,NE,45,0.0,-999.0,52,-99.99,,,0.00,Acu-Link.com,2013-09-09 15:26:00,
2013-09-09 11:41:00,61.3,43.0,30.13,NNW,337,1.7,-999.0,51,-99.99,,,0.00,Acu-Link.com,2013-09-09 15:41:00,
2013-09-09 11:56:00,62.2,43.8,30.12,SSW,202,1.7,-999.0,51,-99.99,,,0.00,Acu-Link.com,2013-09-09 15:56:00,
2013-09-09 12:11:00,62.6,43.7,30.12,SSW,202,0.0,-999.0,50,-99.99,,,0.00,Acu-Link.com,2013-09-09 16:11:00,
2013-09-09 12:27:00,63.5,44.5,30.11,East,90,1.7,-999.0,50,-99.99,,,0.00,Acu-Link.com,2013-09-09 16:27:00,
2013-09-09 12:42:00,63.9,45.4,30.10,South,180,3.7,-999.0,51,-99.99,,,0.00,Acu-Link.com,2013-09-09 16:42:00,
2013-09-09 12:57:00,64.2,45.7,30.10,ESE,112,1.7,-999.0,51,-99.99,,,0.00,Acu-Link.com,2013-09-09 16:57:00,
2013-09-09 13:13:00,65.5,47.4,30.10,WSW,247,3.2,-999.0,52,-99.99,,,0.00,Acu-Link.com,2013-09-09 17:13:00,
2013-09-09 13:28:00,65.7,45.5,30.10,North,0,3.2,-999.0,48,-99.99,,,0.00,Acu-Link.com,2013-09-09 17:28:00,
2013-09-09 13:43:00,65.3,44.0,30.10,WNW,292,3.7,-999.0,46,-99.99,,,0.00,Acu-Link.com,2013-09-09 17:43:00,
2013-09-09 13:58:00,66.0,46.3,30.09,South,180,0.0,-999.0,49,-99.99,,,0.00,Acu-Link.com,2013-09-09 17:58:00,
2013-09-09 14:13:00,66.9,44.9,30.09,NNW,337,0.0,-999.0,45,-99.99,,,0.00,Acu-Link.com,2013-09-09 18:13:00,
2013-09-09 14:29:00,66.6,45.7,30.08,East,90,2.2,-999.0,47,-99.99,,,0.00,Acu-Link.com,2013-09-09 18:29:00,
2013-09-09 14:44:00,66.0,46.3,30.09,NW,315,3.2,-999.0,49,-99.99,,,0.00,Acu-Link.com,2013-09-09 18:44:00,
2013-09-09 14:59:00,65.1,46.0,30.08,West,270,2.7,-999.0,50,-99.99,,,0.00,Acu-Link.com,2013-09-09 18:59:00,
2013-09-09 15:14:00,65.5,48.4,30.08,ENE,67,2.7,-999.0,54,-99.99,,,0.00,Acu-Link.com,2013-09-09 19:14:00,
2013-09-09 15:30:00,65.3,48.2,30.10,East,90,2.7,-999.0,54,-99.99,,,0.00,Acu-Link.com,2013-09-09 19:30:00,
2013-09-09 15:45:00,64.9,48.8,30.09,West,270,1.7,-999.0,56,-99.99,,,0.00,Acu-Link.com,2013-09-09 19:45:00,
2013-09-09 16:00:00,65.5,49.9,30.08,West,270,2.2,-999.0,57,-99.99,,,0.00,Acu-Link.com,2013-09-09 20:00:00,
2013-09-09 16:15:00,65.1,48.0,30.08,North,0,1.1,-999.0,54,-99.99,,,0.00,Acu-Link.com,2013-09-09 20:15:00,
2013-09-09 16:30:00,64.9,48.8,30.08,ENE,67,1.7,-999.0,56,-99.99,,,0.00,Acu-Link.com,2013-09-09 20:30:00,
2013-09-09 16:46:00,65.3,49.7,30.08,South,180,0.0,-999.0,57,-99.99,,,0.00,Acu-Link.com,2013-09-09 20:46:00,
2013-09-09 17:01:00,66.4,50.7,30.08,North,0,1.1,-999.0,57,-99.99,,,0.00,Acu-Link.com,2013-09-09 21:01:00,
2013-09-09 17:16:00,66.9,52.1,30.07,NE,45,1.7,-999.0,59,-99.99,,,0.00,Acu-Link.com,2013-09-09 21:16:00,
2013-09-09 17:31:00,66.2,49.5,30.08,NE,45,2.2,-999.0,55,-99.99,,,0.00,Acu-Link.com,2013-09-09 21:31:00,
2013-09-09 17:47:00,66.2,50.0,30.06,SW,225,0.0,-999.0,56,-99.99,,,0.00,Acu-Link.com,2013-09-09 21:47:00,
2013-09-09 18:02:00,64.9,50.2,30.06,SSW,202,0.0,-999.0,59,-99.99,,,0.00,Acu-Link.com,2013-09-09 22:02:00,
2013-09-09 18:17:00,64.0,51.1,30.06,ESE,112,0.0,-999.0,63,-99.99,,,0.00,Acu-Link.com,2013-09-09 22:17:00,
2013-09-09 18:33:00,63.3,51.3,30.06,ENE,67,0.0,-999.0,65,-99.99,,,0.00,Acu-Link.com,2013-09-09 22:33:00,
2013-09-09 18:48:00,61.7,51.0,30.06,NNE,22,0.0,-999.0,68,-99.99,,,0.00,Acu-Link.com,2013-09-09 22:48:00,
2013-09-09 19:03:00,60.4,51.0,30.07,NE,45,0.0,-999.0,71,-99.99,,,0.00,Acu-Link.com,2013-09-09 23:03:00,
2013-09-09 19:18:00,59.4,50.4,30.07,NE,45,0.0,-999.0,72,-99.99,,,0.00,Acu-Link.com,2013-09-09 23:18:00,
2013-09-09 19:33:00,58.5,50.2,30.06,ESE,112,1.1,-999.0,74,-99.99,,,0.00,Acu-Link.com,2013-09-09 23:33:00,
2013-09-09 19:49:00,58.1,50.2,30.07,North,0,0.0,-999.0,75,-99.99,,,0.00,Acu-Link.com,2013-09-09 23:49:00,
2013-09-09 20:04:00,57.6,50.1,30.07,NNE,22,1.7,-999.0,76,-99.99,,,0.00,Acu-Link.com,2013-09-10 00:04:00,
2013-09-09 20:19:00,57.4,49.9,30.06,NNE,22,4.7,-999.0,76,-99.99,,,0.00,Acu-Link.com,2013-09-10 00:19:00,
2013-09-09 20:34:00,57.2,50.4,30.06,SSE,157,3.7,-999.0,78,-99.99,,,0.00,Acu-Link.com,2013-09-10 00:34:00,
2013-09-09 20:50:00,56.8,50.4,30.07,East,90,1.7,-999.0,79,-99.99,,,0.00,Acu-Link.com,2013-09-10 00:50:00,
2013-09-09 21:05:00,56.7,50.6,30.07,NNW,337,2.7,-999.0,80,-99.99,,,0.00,Acu-Link.com,2013-09-10 01:05:00,
2013-09-09 21:20:00,56.3,50.9,30.06,East,90,2.2,-999.0,82,-99.99,,,0.00,Acu-Link.com,2013-09-10 01:20:00,
2013-09-09 21:35:00,56.1,51.0,30.08,NE,45,1.7,-999.0,83,-99.99,,,0.00,Acu-Link.com,2013-09-10 01:35:00,
2013-09-09 21:50:00,56.1,51.0,30.06,NW,315,2.7,-999.0,83,-99.99,,,0.00,Acu-Link.com,2013-09-10 01:50:00,
2013-09-09 22:06:00,55.9,50.8,30.07,East,90,0.0,-999.0,83,-99.99,,,0.00,Acu-Link.com,2013-09-10 02:06:00,
2013-09-09 22:21:00,55.9,50.8,30.08,ESE,112,2.2,-999.0,83,-99.99,,,0.00,Acu-Link.com,2013-09-10 02:21:00,
2013-09-09 22:36:00,55.8,50.7,30.08,ENE,67,1.1,-999.0,83,-99.99,,,0.00,Acu-Link.com,2013-09-10 02:36:00,
2013-09-09 22:51:00,55.8,51.0,30.07,NE,45,1.1,-999.0,84,-99.99,,,0.00,Acu-Link.com,2013-09-10 02:51:00,
2013-09-09 23:07:00,55.4,50.6,30.06,SW,225,0.0,-999.0,84,-99.99,,,0.00,Acu-Link.com,2013-09-10 03:07:00,
2013-09-09 23:22:00,55.0,50.6,30.06,East,90,0.0,-999.0,85,-99.99,,,0.00,Acu-Link.com,2013-09-10 03:22:00,
2013-09-09 23:37:00,55.0,50.6,30.06,ENE,67,0.0,-999.0,85,-99.99,,,0.00,Acu-Link.com,2013-09-10 03:37:00,
2013-09-09 23:52:00,55.2,50.8,30.07,West,270,2.2,-999.0,85,-99.99,,,0.00,Acu-Link.com,2013-09-10 03:52:00,